sensor_id;sensor_type;location;lat;lon;timestamp;pressure;altitude;pressure_sealevel;temperature;humidity
50310;BME280;36207;51.850;21.698;2023-04-08T00:00:11;100461.73;;;5.11;73.46
50310;BME280;36207;51.850;21.698;2023-04-08T00:02:57;100465.19;;;5.04;73.35
50310;BME280;36207;51.850;21.698;2023-04-08T00:05:23;100462.41;;;4.99;73.41
50310;BME280;36207;51.850;21.698;2023-04-08T00:07:52;100462.66;;;4.94;73.42
50310;BME280;36207;51.850;21.698;2023-04-08T00:10:18;100459.81;;;4.88;73.42
50310;BME280;36207;51.850;21.698;2023-04-08T00:12:45;100458.75;;;4.81;73.18
50310;BME280;36207;51.850;21.698;2023-04-08T00:15:14;100461.10;;;4.73;73.06
50310;BME280;36207;51.850;21.698;2023-04-08T00:17:40;100460.91;;;4.63;73.14
50310;BME280;36207;51.850;21.698;2023-04-08T00:20:07;100459.67;;;4.54;73.14
50310;BME280;36207;51.850;21.698;2023-04-08T00:22:33;100462.95;;;4.49;73.01
50310;BME280;36207;51.850;21.698;2023-04-08T00:25:00;100466.28;;;4.40;72.88
50310;BME280;36207;51.850;21.698;2023-04-08T00:27:27;100467.32;;;4.32;72.76
50310;BME280;36207;51.850;21.698;2023-04-08T00:29:52;100472.66;;;4.23;72.86
50310;BME280;36207;51.850;21.698;2023-04-08T00:32:19;100465.41;;;4.15;72.80
50310;BME280;36207;51.850;21.698;2023-04-08T00:34:45;100468.09;;;4.08;72.84
50310;BME280;36207;51.850;21.698;2023-04-08T00:37:11;100468.05;;;4.00;72.96
50310;BME280;36207;51.850;21.698;2023-04-08T00:39:37;100466.54;;;3.93;72.80
50310;BME280;36207;51.850;21.698;2023-04-08T00:42:02;100467.34;;;3.85;72.96
50310;BME280;36207;51.850;21.698;2023-04-08T00:44:28;100466.45;;;3.79;72.95
50310;BME280;36207;51.850;21.698;2023-04-08T00:46:54;100469.13;;;3.71;72.94
50310;BME280;36207;51.850;21.698;2023-04-08T00:49:21;100467.44;;;3.64;73.00
50310;BME280;36207;51.850;21.698;2023-04-08T00:51:46;100466.45;;;3.57;72.96
50310;BME280;36207;51.850;21.698;2023-04-08T00:54:12;100470.50;;;3.48;73.02
50310;BME280;36207;51.850;21.698;2023-04-08T00:56:38;100470.77;;;3.42;73.01
50310;BME280;36207;51.850;21.698;2023-04-08T00:59:04;100470.90;;;3.39;73.10
50310;BME280;36207;51.850;21.698;2023-04-08T01:07:17;100478.02;;;3.15;72.71
50310;BME280;36207;51.850;21.698;2023-04-08T01:09:54;100475.38;;;3.08;72.93
50310;BME280;36207;51.850;21.698;2023-04-08T01:12:28;100472.90;;;3.04;73.00
50310;BME280;36207;51.850;21.698;2023-04-08T01:15:03;100472.94;;;2.99;72.84
50310;BME280;36207;51.850;21.698;2023-04-08T01:17:31;100472.19;;;2.93;72.70
50310;BME280;36207;51.850;21.698;2023-04-08T01:19:59;100481.81;;;2.84;72.83
50310;BME280;36207;51.850;21.698;2023-04-08T01:22:40;100480.63;;;2.77;72.91
50310;BME280;36207;51.850;21.698;2023-04-08T01:25:23;100484.43;;;2.73;73.08
50310;BME280;36207;51.850;21.698;2023-04-08T01:27:51;100482.98;;;2.72;73.09
50310;BME280;36207;51.850;21.698;2023-04-08T01:30:22;100484.32;;;2.67;73.42
50310;BME280;36207;51.850;21.698;2023-04-08T01:32:52;100488.34;;;2.63;73.36
50310;BME280;36207;51.850;21.698;2023-04-08T01:35:19;100491.60;;;2.60;73.66
50310;BME280;36207;51.850;21.698;2023-04-08T01:37:48;100491.62;;;2.55;73.78
50310;BME280;36207;51.850;21.698;2023-04-08T01:40:18;100490.39;;;2.50;73.77
50310;BME280;36207;51.850;21.698;2023-04-08T01:42:46;100491.19;;;2.47;73.83
50310;BME280;36207;51.850;21.698;2023-04-08T01:45:13;100493.77;;;2.45;73.89
50310;BME280;36207;51.850;21.698;2023-04-08T01:47:41;100499.36;;;2.43;74.18
50310;BME280;36207;51.850;21.698;2023-04-08T01:50:09;100500.79;;;2.41;74.09
50310;BME280;36207;51.850;21.698;2023-04-08T01:52:38;100501.88;;;2.38;74.02
50310;BME280;36207;51.850;21.698;2023-04-08T01:55:05;100501.63;;;2.34;73.96
50310;BME280;36207;51.850;21.698;2023-04-08T01:57:32;100500.95;;;2.29;73.98
50310;BME280;36207;51.850;21.698;2023-04-08T02:00:02;100500.89;;;2.22;74.00
50310;BME280;36207;51.850;21.698;2023-04-08T02:02:31;100503.98;;;2.16;73.91
50310;BME280;36207;51.850;21.698;2023-04-08T02:04:57;100507.84;;;2.14;74.06
50310;BME280;36207;51.850;21.698;2023-04-08T02:07:26;100505.59;;;2.14;74.23
50310;BME280;36207;51.850;21.698;2023-04-08T02:09:52;100510.50;;;2.14;74.28
50310;BME280;36207;51.850;21.698;2023-04-08T02:12:18;100512.68;;;2.13;74.09
50310;BME280;36207;51.850;21.698;2023-04-08T02:14:44;100514.11;;;2.10;74.03
50310;BME280;36207;51.850;21.698;2023-04-08T02:17:13;100518.90;;;2.04;74.20
50310;BME280;36207;51.850;21.698;2023-04-08T02:19:48;100519.77;;;2.00;74.26
50310;BME280;36207;51.850;21.698;2023-04-08T02:22:23;100520.68;;;1.95;74.18
50310;BME280;36207;51.850;21.698;2023-04-08T02:24:51;100521.70;;;1.90;74.28
50310;BME280;36207;51.850;21.698;2023-04-08T02:27:18;100523.70;;;1.89;74.35
50310;BME280;36207;51.850;21.698;2023-04-08T02:29:46;100523.77;;;1.88;74.55
50310;BME280;36207;51.850;21.698;2023-04-08T02:32:15;100524.25;;;1.87;74.58
50310;BME280;36207;51.850;21.698;2023-04-08T02:34:42;100531.05;;;1.85;74.40
50310;BME280;36207;51.850;21.698;2023-04-08T02:37:08;100528.81;;;1.82;74.43
50310;BME280;36207;51.850;21.698;2023-04-08T02:39:37;100529.80;;;1.77;74.36
50310;BME280;36207;51.850;21.698;2023-04-08T02:42:03;100535.48;;;1.74;74.59
50310;BME280;36207;51.850;21.698;2023-04-08T02:44:30;100538.34;;;1.71;74.58
50310;BME280;36207;51.850;21.698;2023-04-08T02:46:56;100542.20;;;1.69;74.46
50310;BME280;36207;51.850;21.698;2023-04-08T02:49:22;100540.96;;;1.69;74.57
50310;BME280;36207;51.850;21.698;2023-04-08T02:51:48;100543.58;;;1.69;74.61
50310;BME280;36207;51.850;21.698;2023-04-08T02:54:14;100547.91;;;1.67;74.66
50310;BME280;36207;51.850;21.698;2023-04-08T02:56:40;100547.23;;;1.67;74.76
50310;BME280;36207;51.850;21.698;2023-04-08T02:59:06;100548.88;;;1.66;74.81
50310;BME280;36207;51.850;21.698;2023-04-08T03:01:32;100552.36;;;1.62;74.58
50310;BME280;36207;51.850;21.698;2023-04-08T03:03:58;100549.88;;;1.57;74.41
50310;BME280;36207;51.850;21.698;2023-04-08T03:06:24;100548.58;;;1.53;74.45
50310;BME280;36207;51.850;21.698;2023-04-08T03:08:50;100549.84;;;1.52;74.73
50310;BME280;36207;51.850;21.698;2023-04-08T03:11:16;100548.91;;;1.53;74.79
50310;BME280;36207;51.850;21.698;2023-04-08T03:13:42;100551.44;;;1.55;75.00
50310;BME280;36207;51.850;21.698;2023-04-08T03:16:08;100551.27;;;1.55;74.98
50310;BME280;36207;51.850;21.698;2023-04-08T03:18:34;100549.27;;;1.53;74.99
50310;BME280;36207;51.850;21.698;2023-04-08T03:21:00;100546.86;;;1.50;74.79
50310;BME280;36207;51.850;21.698;2023-04-08T03:23:27;100547.41;;;1.47;75.04
50310;BME280;36207;51.850;21.698;2023-04-08T03:25:53;100544.92;;;1.47;75.08
50310;BME280;36207;51.850;21.698;2023-04-08T03:28:19;100546.69;;;1.48;75.04
50310;BME280;36207;51.850;21.698;2023-04-08T03:30:45;100550.52;;;1.48;75.17
50310;BME280;36207;51.850;21.698;2023-04-08T03:33:11;100553.52;;;1.48;75.17
50310;BME280;36207;51.850;21.698;2023-04-08T03:35:37;100549.85;;;1.47;75.02
50310;BME280;36207;51.850;21.698;2023-04-08T03:38:03;100557.30;;;1.46;75.23
50310;BME280;36207;51.850;21.698;2023-04-08T03:40:29;100559.89;;;1.44;75.08
50310;BME280;36207;51.850;21.698;2023-04-08T03:42:55;100562.80;;;1.45;75.24
50310;BME280;36207;51.850;21.698;2023-04-08T03:45:21;100568.00;;;1.51;75.39
50310;BME280;36207;51.850;21.698;2023-04-08T03:47:47;100569.73;;;1.59;75.72
50310;BME280;36207;51.850;21.698;2023-04-08T03:50:14;100573.82;;;1.64;75.85
50310;BME280;36207;51.850;21.698;2023-04-08T03:52:39;100576.42;;;1.66;75.92
50310;BME280;36207;51.850;21.698;2023-04-08T03:55:06;100578.08;;;1.68;75.93
50310;BME280;36207;51.850;21.698;2023-04-08T03:57:32;100580.75;;;1.67;75.77
50310;BME280;36207;51.850;21.698;2023-04-08T03:59:57;100583.69;;;1.68;75.85
50310;BME280;36207;51.850;21.698;2023-04-08T04:02:23;100586.10;;;1.71;75.79
50310;BME280;36207;51.850;21.698;2023-04-08T04:04:49;100585.02;;;1.71;75.76
50310;BME280;36207;51.850;21.698;2023-04-08T04:07:15;100589.62;;;1.71;75.73
50310;BME280;36207;51.850;21.698;2023-04-08T04:09:41;100593.75;;;1.69;75.77
50310;BME280;36207;51.850;21.698;2023-04-08T04:12:07;100587.55;;;1.68;75.72
50310;BME280;36207;51.850;21.698;2023-04-08T04:14:33;100592.70;;;1.67;75.78
50310;BME280;36207;51.850;21.698;2023-04-08T04:16:59;100594.26;;;1.67;75.86
50310;BME280;36207;51.850;21.698;2023-04-08T04:19:29;100593.73;;;1.70;75.73
50310;BME280;36207;51.850;21.698;2023-04-08T04:21:56;100594.98;;;1.72;75.72
50310;BME280;36207;51.850;21.698;2023-04-08T04:24:22;100599.17;;;1.74;75.85
50310;BME280;36207;51.850;21.698;2023-04-08T04:26:47;100597.90;;;1.75;75.97
50310;BME280;36207;51.850;21.698;2023-04-08T04:29:13;100601.80;;;1.74;75.95
50310;BME280;36207;51.850;21.698;2023-04-08T04:31:40;100601.88;;;1.73;75.99
50310;BME280;36207;51.850;21.698;2023-04-08T04:34:06;100604.16;;;1.76;76.01
50310;BME280;36207;51.850;21.698;2023-04-08T04:36:32;100605.02;;;1.82;76.08
50310;BME280;36207;51.850;21.698;2023-04-08T04:38:58;100604.19;;;1.89;76.21
50310;BME280;36207;51.850;21.698;2023-04-08T04:41:25;100607.64;;;1.94;76.32
50310;BME280;36207;51.850;21.698;2023-04-08T04:43:52;100612.86;;;1.99;76.10
50310;BME280;36207;51.850;21.698;2023-04-08T04:46:17;100612.27;;;2.03;76.14
50310;BME280;36207;51.850;21.698;2023-04-08T04:48:43;100613.34;;;2.08;76.30
50310;BME280;36207;51.850;21.698;2023-04-08T04:51:10;100612.34;;;2.12;76.29
50310;BME280;36207;51.850;21.698;2023-04-08T04:53:36;100615.10;;;2.17;76.29
50310;BME280;36207;51.850;21.698;2023-04-08T04:56:02;100615.20;;;2.23;76.19
50310;BME280;36207;51.850;21.698;2023-04-08T04:58:28;100616.83;;;2.30;76.28
50310;BME280;36207;51.850;21.698;2023-04-08T05:00:55;100618.40;;;2.37;76.41
50310;BME280;36207;51.850;21.698;2023-04-08T05:03:21;100618.61;;;2.44;76.58
50310;BME280;36207;51.850;21.698;2023-04-08T05:05:52;100625.30;;;2.51;76.72
50310;BME280;36207;51.850;21.698;2023-04-08T05:08:18;100633.38;;;2.54;76.71
50310;BME280;36207;51.850;21.698;2023-04-08T05:10:45;100637.30;;;2.58;76.85
50310;BME280;36207;51.850;21.698;2023-04-08T05:13:11;100636.66;;;2.64;76.95
50310;BME280;36207;51.850;21.698;2023-04-08T05:15:37;100638.27;;;2.73;77.00
50310;BME280;36207;51.850;21.698;2023-04-08T05:18:03;100641.02;;;2.83;76.95
50310;BME280;36207;51.850;21.698;2023-04-08T05:20:29;100639.35;;;2.92;77.10
50310;BME280;36207;51.850;21.698;2023-04-08T05:22:55;100640.78;;;3.01;77.03
50310;BME280;36207;51.850;21.698;2023-04-08T05:25:21;100644.29;;;3.13;77.15
50310;BME280;36207;51.850;21.698;2023-04-08T05:27:47;100650.39;;;3.23;77.16
50310;BME280;36207;51.850;21.698;2023-04-08T05:30:13;100650.40;;;3.29;77.23
50310;BME280;36207;51.850;21.698;2023-04-08T05:32:39;100654.13;;;3.31;77.16
50310;BME280;36207;51.850;21.698;2023-04-08T05:35:05;100653.77;;;3.34;77.09
50310;BME280;36207;51.850;21.698;2023-04-08T05:37:31;100653.45;;;3.38;77.28
50310;BME280;36207;51.850;21.698;2023-04-08T05:39:58;100658.16;;;3.45;77.38
50310;BME280;36207;51.850;21.698;2023-04-08T05:42:23;100655.56;;;3.56;77.40
50310;BME280;36207;51.850;21.698;2023-04-08T05:44:49;100653.20;;;3.76;77.66
50310;BME280;36207;51.850;21.698;2023-04-08T05:47:15;100650.02;;;3.98;77.95
50310;BME280;36207;51.850;21.698;2023-04-08T05:49:41;100646.12;;;4.21;77.90
50310;BME280;36207;51.850;21.698;2023-04-08T05:52:07;100643.40;;;4.41;78.01
50310;BME280;36207;51.850;21.698;2023-04-08T05:54:33;100645.63;;;4.64;78.16
50310;BME280;36207;51.850;21.698;2023-04-08T05:56:59;100648.11;;;4.89;78.18
50310;BME280;36207;51.850;21.698;2023-04-08T05:59:25;100651.44;;;5.13;77.97
50310;BME280;36207;51.850;21.698;2023-04-08T06:01:51;100651.85;;;5.31;78.04
50310;BME280;36207;51.850;21.698;2023-04-08T06:04:19;100652.08;;;5.50;78.02
50310;BME280;36207;51.850;21.698;2023-04-08T06:06:45;100656.41;;;5.63;77.52
50310;BME280;36207;51.850;21.698;2023-04-08T06:09:11;100653.33;;;5.74;77.72
50310;BME280;36207;51.850;21.698;2023-04-08T06:11:37;100654.98;;;5.92;77.79
50310;BME280;36207;51.850;21.698;2023-04-08T06:14:03;100658.27;;;6.13;77.98
50310;BME280;36207;51.850;21.698;2023-04-08T06:16:29;100660.82;;;6.36;78.05
50310;BME280;36207;51.850;21.698;2023-04-08T06:18:55;100657.34;;;6.57;78.06
50310;BME280;36207;51.850;21.698;2023-04-08T06:21:21;100659.70;;;6.72;77.63
50310;BME280;36207;51.850;21.698;2023-04-08T06:23:47;100662.11;;;6.83;77.34
50310;BME280;36207;51.850;21.698;2023-04-08T06:26:12;100663.10;;;6.98;77.50
50310;BME280;36207;51.850;21.698;2023-04-08T06:28:38;100663.63;;;7.15;77.82
50310;BME280;36207;51.850;21.698;2023-04-08T06:31:05;100659.45;;;7.39;78.00
50310;BME280;36207;51.850;21.698;2023-04-08T06:33:31;100658.98;;;7.59;77.96
50310;BME280;36207;51.850;21.698;2023-04-08T06:36:03;100658.62;;;7.80;77.93
50310;BME280;36207;51.850;21.698;2023-04-08T06:38:29;100659.23;;;8.01;77.87
50310;BME280;36207;51.850;21.698;2023-04-08T06:41:06;100660.67;;;8.18;77.05
50310;BME280;36207;51.850;21.698;2023-04-08T06:43:33;100659.74;;;8.25;76.67
50310;BME280;36207;51.850;21.698;2023-04-08T06:46:00;100661.86;;;8.33;76.29
50310;BME280;36207;51.850;21.698;2023-04-08T06:48:26;100659.25;;;8.38;76.26
50310;BME280;36207;51.850;21.698;2023-04-08T06:50:56;100660.72;;;8.47;75.85
50310;BME280;36207;51.850;21.698;2023-04-08T06:53:23;100664.02;;;8.57;76.12
50310;BME280;36207;51.850;21.698;2023-04-08T06:55:57;100666.36;;;8.67;76.18
50310;BME280;36207;51.850;21.698;2023-04-08T06:58:23;100673.52;;;8.86;76.39
50310;BME280;36207;51.850;21.698;2023-04-08T07:00:49;100678.09;;;9.03;75.79
50310;BME280;36207;51.850;21.698;2023-04-08T07:03:15;100680.47;;;9.17;75.94
50310;BME280;36207;51.850;21.698;2023-04-08T07:05:41;100683.50;;;9.34;76.16
50310;BME280;36207;51.850;21.698;2023-04-08T07:08:07;100685.66;;;9.51;75.65
50310;BME280;36207;51.850;21.698;2023-04-08T07:10:34;100677.55;;;9.59;75.28
50310;BME280;36207;51.850;21.698;2023-04-08T07:13:00;100681.20;;;9.72;75.69
50310;BME280;36207;51.850;21.698;2023-04-08T07:15:27;100680.34;;;9.86;75.84
50310;BME280;36207;51.850;21.698;2023-04-08T07:17:52;100685.11;;;10.02;75.74
50310;BME280;36207;51.850;21.698;2023-04-08T07:20:22;100685.35;;;10.17;75.63
50310;BME280;36207;51.850;21.698;2023-04-08T07:22:48;100687.09;;;10.29;75.33
50310;BME280;36207;51.850;21.698;2023-04-08T07:25:15;100686.59;;;10.39;74.94
50310;BME280;36207;51.850;21.698;2023-04-08T07:27:41;100684.89;;;10.52;75.00
50310;BME280;36207;51.850;21.698;2023-04-08T07:30:07;100685.88;;;10.66;75.03
50310;BME280;36207;51.850;21.698;2023-04-08T07:32:33;100687.11;;;10.80;74.77
50310;BME280;36207;51.850;21.698;2023-04-08T07:35:00;100688.61;;;10.92;75.12
50310;BME280;36207;51.850;21.698;2023-04-08T07:37:26;100685.30;;;11.06;74.88
50310;BME280;36207;51.850;21.698;2023-04-08T07:39:52;100685.81;;;11.18;74.30
50310;BME280;36207;51.850;21.698;2023-04-08T07:42:19;100684.29;;;11.29;74.38
50310;BME280;36207;51.850;21.698;2023-04-08T07:44:44;100686.77;;;11.44;74.24
50310;BME280;36207;51.850;21.698;2023-04-08T07:47:11;100689.14;;;11.57;73.75
50310;BME280;36207;51.850;21.698;2023-04-08T07:49:37;100688.28;;;11.67;73.22
50310;BME280;36207;51.850;21.698;2023-04-08T07:52:04;100685.52;;;11.76;73.91
50310;BME280;36207;51.850;21.698;2023-04-08T07:54:30;100690.04;;;11.90;73.64
50310;BME280;36207;51.850;21.698;2023-04-08T07:56:59;100686.91;;;11.99;71.84
50310;BME280;36207;51.850;21.698;2023-04-08T07:59:26;100685.19;;;12.05;72.21
50310;BME280;36207;51.850;21.698;2023-04-08T08:01:52;100681.64;;;12.14;71.90
50310;BME280;36207;51.850;21.698;2023-04-08T08:04:18;100681.44;;;12.22;72.47
50310;BME280;36207;51.850;21.698;2023-04-08T08:06:45;100680.48;;;12.35;72.39
50310;BME280;36207;51.850;21.698;2023-04-08T08:09:12;100679.33;;;12.52;72.69
50310;BME280;36207;51.850;21.698;2023-04-08T08:11:38;100681.10;;;12.71;72.53
50310;BME280;36207;51.850;21.698;2023-04-08T08:14:08;100677.06;;;12.88;71.99
50310;BME280;36207;51.850;21.698;2023-04-08T08:16:36;100676.70;;;13.01;72.29
50310;BME280;36207;51.850;21.698;2023-04-08T08:19:03;100682.29;;;13.16;71.74
50310;BME280;36207;51.850;21.698;2023-04-08T08:21:32;100691.08;;;13.26;68.88
50310;BME280;36207;51.850;21.698;2023-04-08T08:23:58;100681.94;;;13.29;69.59
50310;BME280;36207;51.850;21.698;2023-04-08T08:26:24;100688.44;;;13.35;68.87
50310;BME280;36207;51.850;21.698;2023-04-08T08:28:50;100686.94;;;13.37;69.02
50310;BME280;36207;51.850;21.698;2023-04-08T08:31:16;100685.61;;;13.50;69.60
50310;BME280;36207;51.850;21.698;2023-04-08T08:33:41;100687.64;;;13.63;68.39
50310;BME280;36207;51.850;21.698;2023-04-08T08:36:07;100686.91;;;13.75;68.77
50310;BME280;36207;51.850;21.698;2023-04-08T08:38:33;100688.48;;;13.87;68.56
50310;BME280;36207;51.850;21.698;2023-04-08T08:40:59;100686.68;;;14.01;68.91
50310;BME280;36207;51.850;21.698;2023-04-08T08:43:28;100690.14;;;14.15;68.79
50310;BME280;36207;51.850;21.698;2023-04-08T08:45:58;100692.86;;;14.28;67.57
50310;BME280;36207;51.850;21.698;2023-04-08T08:48:24;100693.68;;;14.26;64.75
50310;BME280;36207;51.850;21.698;2023-04-08T08:50:50;100694.27;;;14.18;64.23
50310;BME280;36207;51.850;21.698;2023-04-08T08:53:16;100694.04;;;14.16;64.56
50310;BME280;36207;51.850;21.698;2023-04-08T08:55:42;100691.58;;;14.27;66.58
50310;BME280;36207;51.850;21.698;2023-04-08T08:58:08;100689.87;;;14.44;66.71
50310;BME280;36207;51.850;21.698;2023-04-08T09:00:36;100694.72;;;14.59;67.25
50310;BME280;36207;51.850;21.698;2023-04-08T09:03:19;100698.46;;;14.74;67.06
50310;BME280;36207;51.850;21.698;2023-04-08T09:08:40;100700.10;;;14.81;65.75
50310;BME280;36207;51.850;21.698;2023-04-08T09:11:17;100700.30;;;14.76;63.99
50310;BME280;36207;51.850;21.698;2023-04-08T09:13:44;100698.80;;;14.68;65.09
50310;BME280;36207;51.850;21.698;2023-04-08T09:16:12;100699.27;;;14.58;64.02
50310;BME280;36207;51.850;21.698;2023-04-08T09:18:39;100697.15;;;14.58;64.59
50310;BME280;36207;51.850;21.698;2023-04-08T09:21:16;100697.17;;;14.68;64.44
50310;BME280;36207;51.850;21.698;2023-04-08T09:23:44;100693.55;;;14.72;63.55
50310;BME280;36207;51.850;21.698;2023-04-08T09:28:42;100695.27;;;14.86;64.64
50310;BME280;36207;51.850;21.698;2023-04-08T09:31:25;100696.30;;;14.98;64.57
50310;BME280;36207;51.850;21.698;2023-04-08T09:33:54;100696.89;;;15.10;63.99
50310;BME280;36207;51.850;21.698;2023-04-08T09:36:21;100695.27;;;15.24;64.27
50310;BME280;36207;51.850;21.698;2023-04-08T09:38:47;100696.88;;;15.41;63.70
50310;BME280;36207;51.850;21.698;2023-04-08T09:41:15;100697.50;;;15.51;62.42
50310;BME280;36207;51.850;21.698;2023-04-08T09:43:55;100698.38;;;15.62;63.66
50310;BME280;36207;51.850;21.698;2023-04-08T09:46:25;100698.93;;;15.78;63.45
50310;BME280;36207;51.850;21.698;2023-04-08T09:49:03;100694.61;;;15.87;63.18
50310;BME280;36207;51.850;21.698;2023-04-08T09:54:41;100692.59;;;15.84;59.72
50310;BME280;36207;51.850;21.698;2023-04-08T09:57:13;100693.39;;;15.79;61.26
50310;BME280;36207;51.850;21.698;2023-04-08T09:59:46;100690.73;;;15.88;62.68
50310;BME280;36207;51.850;21.698;2023-04-08T10:02:15;100688.83;;;16.05;63.21
50310;BME280;36207;51.850;21.698;2023-04-08T10:04:47;100690.73;;;16.22;63.44
50310;BME280;36207;51.850;21.698;2023-04-08T10:07:15;100686.83;;;16.37;61.99
50310;BME280;36207;51.850;21.698;2023-04-08T10:09:42;100688.74;;;16.47;62.04
50310;BME280;36207;51.850;21.698;2023-04-08T10:12:08;100691.89;;;16.57;62.39
50310;BME280;36207;51.850;21.698;2023-04-08T10:14:34;100685.48;;;16.65;61.77
50310;BME280;36207;51.850;21.698;2023-04-08T10:17:25;100681.10;;;16.68;60.90
50310;BME280;36207;51.850;21.698;2023-04-08T10:20:01;100681.52;;;16.69;59.98
50310;BME280;36207;51.850;21.698;2023-04-08T10:27:40;100680.31;;;16.57;59.54
50310;BME280;36207;51.850;21.698;2023-04-08T10:32:50;100677.80;;;16.74;60.35
50310;BME280;36207;51.850;21.698;2023-04-08T10:35:16;100673.50;;;16.86;61.48
50310;BME280;36207;51.850;21.698;2023-04-08T10:37:43;100672.17;;;16.92;60.28
50310;BME280;36207;51.850;21.698;2023-04-08T10:40:18;100668.50;;;17.00;58.34
50310;BME280;36207;51.850;21.698;2023-04-08T10:42:44;100668.41;;;16.97;57.69
50310;BME280;36207;51.850;21.698;2023-04-08T10:45:10;100666.45;;;16.92;56.95
50310;BME280;36207;51.850;21.698;2023-04-08T10:47:35;100665.64;;;16.81;56.72
50310;BME280;36207;51.850;21.698;2023-04-08T10:50:12;100663.81;;;16.81;58.38
50310;BME280;36207;51.850;21.698;2023-04-08T10:52:48;100659.77;;;16.90;59.10
50310;BME280;36207;51.850;21.698;2023-04-08T10:55:15;100659.30;;;17.03;59.88
50310;BME280;36207;51.850;21.698;2023-04-08T10:57:42;100657.64;;;17.19;60.42
50310;BME280;36207;51.850;21.698;2023-04-08T11:00:17;100654.20;;;17.27;56.56
50310;BME280;36207;51.850;21.698;2023-04-08T11:02:43;100654.02;;;17.03;54.15
50310;BME280;36207;51.850;21.698;2023-04-08T11:05:09;100653.31;;;16.79;55.75
50310;BME280;36207;51.850;21.698;2023-04-08T11:07:41;100648.06;;;16.67;55.64
50310;BME280;36207;51.850;21.698;2023-04-08T11:10:08;100649.86;;;16.59;57.80
50310;BME280;36207;51.850;21.698;2023-04-08T11:12:43;100649.84;;;16.49;58.20
50310;BME280;36207;51.850;21.698;2023-04-08T11:15:12;100649.20;;;16.32;57.90
50310;BME280;36207;51.850;21.698;2023-04-08T11:17:38;100645.95;;;16.17;58.03
50310;BME280;36207;51.850;21.698;2023-04-08T11:20:05;100646.75;;;16.14;57.12
50310;BME280;36207;51.850;21.698;2023-04-08T11:22:33;100643.96;;;16.18;57.92
50310;BME280;36207;51.850;21.698;2023-04-08T11:24:59;100639.26;;;16.24;58.75
50310;BME280;36207;51.850;21.698;2023-04-08T11:27:26;100633.07;;;16.32;58.91
50310;BME280;36207;51.850;21.698;2023-04-08T11:29:55;100633.52;;;16.38;58.21
50310;BME280;36207;51.850;21.698;2023-04-08T11:32:22;100630.95;;;16.40;58.37
50310;BME280;36207;51.850;21.698;2023-04-08T11:34:48;100630.52;;;16.46;58.36
50310;BME280;36207;51.850;21.698;2023-04-08T11:37:14;100626.41;;;16.50;58.00
50310;BME280;36207;51.850;21.698;2023-04-08T11:39:44;100629.70;;;16.53;58.43
50310;BME280;36207;51.850;21.698;2023-04-08T11:42:39;100629.64;;;16.61;58.25
50310;BME280;36207;51.850;21.698;2023-04-08T11:45:12;100626.58;;;16.65;58.64
50310;BME280;36207;51.850;21.698;2023-04-08T11:47:39;100620.64;;;16.65;58.14
50310;BME280;36207;51.850;21.698;2023-04-08T11:50:06;100618.94;;;16.64;58.42
50310;BME280;36207;51.850;21.698;2023-04-08T11:52:46;100618.16;;;16.68;58.71
50310;BME280;36207;51.850;21.698;2023-04-08T11:57:53;100621.51;;;16.85;57.33
50310;BME280;36207;51.850;21.698;2023-04-08T12:00:20;100616.95;;;16.79;55.65
50310;BME280;36207;51.850;21.698;2023-04-08T12:02:46;100614.67;;;16.70;55.72
50310;BME280;36207;51.850;21.698;2023-04-08T12:05:14;100614.21;;;16.66;55.19
50310;BME280;36207;51.850;21.698;2023-04-08T12:07:41;100609.44;;;16.62;56.60
50310;BME280;36207;51.850;21.698;2023-04-08T12:10:11;100608.95;;;16.66;56.40
50310;BME280;36207;51.850;21.698;2023-04-08T12:12:37;100611.60;;;16.70;56.12
50310;BME280;36207;51.850;21.698;2023-04-08T12:15:04;100614.13;;;16.76;56.98
50310;BME280;36207;51.850;21.698;2023-04-08T12:17:30;100610.10;;;16.87;56.90
50310;BME280;36207;51.850;21.698;2023-04-08T12:19:56;100607.81;;;16.95;56.18
50310;BME280;36207;51.850;21.698;2023-04-08T12:22:22;100603.49;;;16.93;55.27
50310;BME280;36207;51.850;21.698;2023-04-08T12:24:49;100597.73;;;16.86;55.41
50310;BME280;36207;51.850;21.698;2023-04-08T12:27:15;100594.94;;;16.84;56.08
50310;BME280;36207;51.850;21.698;2023-04-08T12:29:41;100594.48;;;16.78;56.26
50310;BME280;36207;51.850;21.698;2023-04-08T12:32:08;100586.23;;;16.70;56.50
50310;BME280;36207;51.850;21.698;2023-04-08T12:34:34;100582.94;;;16.70;56.51
50310;BME280;36207;51.850;21.698;2023-04-08T12:37:00;100581.54;;;16.68;55.45
50310;BME280;36207;51.850;21.698;2023-04-08T12:39:27;100580.20;;;16.62;55.58
50310;BME280;36207;51.850;21.698;2023-04-08T12:41:53;100580.52;;;16.57;55.90
50310;BME280;36207;51.850;21.698;2023-04-08T12:44:19;100577.88;;;16.48;55.71
50310;BME280;36207;51.850;21.698;2023-04-08T12:46:45;100576.09;;;16.43;56.01
50310;BME280;36207;51.850;21.698;2023-04-08T12:49:11;100573.62;;;16.33;56.06
50310;BME280;36207;51.850;21.698;2023-04-08T12:51:37;100574.16;;;16.30;56.37
50310;BME280;36207;51.850;21.698;2023-04-08T12:54:04;100576.52;;;16.34;56.12
50310;BME280;36207;51.850;21.698;2023-04-08T12:56:31;100577.11;;;16.39;56.42
50310;BME280;36207;51.850;21.698;2023-04-08T12:58:58;100581.31;;;16.40;56.20
50310;BME280;36207;51.850;21.698;2023-04-08T13:01:24;100577.30;;;16.42;56.18
50310;BME280;36207;51.850;21.698;2023-04-08T13:03:50;100575.38;;;16.41;55.84
50310;BME280;36207;51.850;21.698;2023-04-08T13:06:16;100572.02;;;16.42;55.97
50310;BME280;36207;51.850;21.698;2023-04-08T13:08:42;100567.62;;;16.40;55.56
50310;BME280;36207;51.850;21.698;2023-04-08T13:11:08;100566.38;;;16.38;55.95